Time;durP1;ratioP1;P1;durP2;ratioP2;P2;SDS_P1;SDS_P2;PMS_P1;PMS_P2;Temp;Humidity;BMP_temperature;BMP_pressure;BME280_temperature;BME280_humidity;BME280_pressure;Samples;Min_cycle;Max_cycle;Signal;HPM_P1;HPM_P2
2022/10/03 00:01:38;;;;;;;;;;;20.10;50.60;;;;;;8330464;28;19987;-44
2022/10/03 00:06:02;;;;;;;;;;;20.10;50.60;;;;;;8329972;28;20282;-44
2022/10/03 00:10:27;;;;;;;;;;;20.10;50.60;;;;;;8330740;28;20366;-45
2022/10/03 00:14:34;;;;;;;;;;;20.10;50.60;;;;;;8302913;28;20337;-43
2022/10/03 00:18:35;;;;;;;;;;;20.10;50.60;;;;;;8328971;28;19913;-44
2022/10/03 00:22:44;;;;;;;;;;;20.10;50.60;;;;;;8329557;28;19932;-43
2022/10/03 00:26:51;;;;;;;;;;;20.10;50.70;;;;;;8329734;28;19913;-44
2022/10/03 00:30:51;;;;;;;;;;;20.10;50.60;;;;;;8330304;28;19940;-44
2022/10/03 00:35:07;;;;;;;;;;;20.10;50.60;;;;;;8329794;28;19960;-44
2022/10/03 00:39:16;;;;;;;;;;;20.00;50.60;;;;;;8329698;28;19928;-44
2022/10/03 00:43:31;;;;;;;;;;;20.00;50.60;;;;;;8329961;28;20505;-44
2022/10/03 00:47:41;;;;;;;;;;;20.10;50.60;;;;;;8329769;28;20004;-44
2022/10/03 00:51:44;;;;;;;;;;;20.00;50.60;;;;;;8329320;28;19924;-43
2022/10/03 00:56:03;;;;;;;;;;;20.00;50.60;;;;;;8329551;28;19917;-44
2022/10/03 01:00:07;;;;;;;;;;;20.00;50.60;;;;;;8329037;28;19925;-44
2022/10/03 01:04:25;;;;;;;;;;;20.00;50.60;;;;;;8329238;28;20423;-44
2022/10/03 01:08:35;;;;;;;;;;;20.00;50.60;;;;;;8297005;28;19917;-45
2022/10/03 01:12:41;;;;;;;;;;;20.00;50.60;;;;;;8322436;28;19917;-43
2022/10/03 01:17:01;;;;;;;;;;;20.00;50.60;;;;;;8329414;28;20401;-44
2022/10/03 01:21:08;;;;;;;;;;;20.00;50.60;;;;;;8328630;28;19933;-44
2022/10/03 01:25:27;;;;;;;;;;;20.00;50.60;;;;;;8329214;28;20028;-43
2022/10/03 01:34:03;;;;;;;;;;;20.00;50.60;;;;;;8333084;28;19952;-44
2022/10/03 01:38:08;;;;;;;;;;;20.00;50.60;;;;;;8334866;28;19921;-44
2022/10/03 01:42:09;;;;;;;;;;;20.00;50.60;;;;;;8334197;28;19929;-44
2022/10/03 01:46:26;;;;;;;;;;;20.00;50.60;;;;;;8334432;28;20000;-44
2022/10/03 01:50:32;;;;;;;;;;;20.00;50.60;;;;;;8337295;28;19921;-45
2022/10/03 01:54:32;;;;;;;;;;;20.00;50.70;;;;;;8334578;28;20378;-45
2022/10/03 01:58:33;;;;;;;;;;;20.00;50.60;;;;;;8334022;28;19917;-44
2022/10/03 02:02:48;;;;;;;;;;;20.00;50.60;;;;;;8333625;28;19944;-44
2022/10/03 02:06:49;;;;;;;;;;;19.90;50.60;;;;;;8333855;28;19924;-45
2022/10/03 02:10:52;;;;;;;;;;;19.90;50.60;;;;;;8333762;28;20204;-44
2022/10/03 02:15:01;;;;;;;;;;;20.00;50.60;;;;;;8333180;28;19968;-45
2022/10/03 02:19:20;;;;;;;;;;;19.90;50.60;;;;;;8333667;28;20039;-45
2022/10/03 02:23:32;;;;;;;;;;;19.90;50.60;;;;;;8333436;28;19936;-44
2022/10/03 02:27:42;;;;;;;;;;;19.90;50.60;;;;;;8332990;28;19924;-44
2022/10/03 02:32:04;;;;;;;;;;;19.90;50.60;;;;;;8333503;28;20366;-44
2022/10/03 02:36:25;;;;;;;;;;;19.90;50.50;;;;;;8331151;28;19927;-45
2022/10/03 02:40:48;;;;;;;;;;;19.90;50.50;;;;;;8332749;28;20004;-45
2022/10/03 02:45:07;;;;;;;;;;;19.90;50.50;;;;;;8331822;28;19918;-44
2022/10/03 02:49:26;;;;;;;;;;;19.90;50.50;;;;;;8332966;28;20409;-44
2022/10/03 02:53:47;;;;;;;;;;;19.90;50.50;;;;;;8332362;28;19960;-44
2022/10/03 02:58:06;;;;;;;;;;;19.90;50.50;;;;;;8332381;28;19917;-45
2022/10/03 03:02:06;;;;;;;;;;;19.90;50.50;;;;;;8332312;28;20358;-45
2022/10/03 03:06:15;;;;;;;;;;;19.90;50.50;;;;;;8331750;28;19928;-45
2022/10/03 03:10:21;;;;;;;;;;;19.90;50.50;;;;;;8332108;28;19920;-44
2022/10/03 03:14:48;;;;;;;;;;;19.90;50.50;;;;;;8332114;28;20285;-44
2022/10/03 03:18:58;;;;;;;;;;;19.80;50.50;;;;;;8331429;28;19940;-44
2022/10/03 03:23:06;;;;;;;;;;;19.80;50.50;;;;;;8331318;28;19925;-44
2022/10/03 03:27:36;;;;;;;;;;;19.90;50.50;;;;;;8331135;28;20267;-44
2022/10/03 03:31:53;;;;;;;;;;;19.90;51.00;;;;;;8277802;28;20278;-45
2022/10/03 03:36:02;;;;;;;;;;;19.80;50.50;;;;;;8330678;28;19921;-44
2022/10/03 03:40:12;;;;;;;;;;;19.80;50.50;;;;;;8331278;28;19921;-44
2022/10/03 03:44:26;;;;;;;;;;;19.80;50.50;;;;;;8331052;28;20293;-45
2022/10/03 03:48:45;;;;;;;;;;;19.90;50.50;;;;;;8330401;28;20007;-46
2022/10/03 03:53:02;;;;;;;;;;;19.90;50.50;;;;;;8329968;28;22381;-44
2022/10/03 03:57:13;;;;;;;;;;;19.80;50.50;;;;;;8330250;28;20396;-45
2022/10/03 04:01:25;;;;;;;;;;;19.90;50.50;;;;;;8330731;28;19976;-44
2022/10/03 04:05:30;;;;;;;;;;;19.80;50.50;;;;;;8329871;28;20389;-46
2022/10/03 04:09:54;;;;;;;;;;;19.80;50.50;;;;;;8330074;28;19921;-44
2022/10/03 04:13:57;;;;;;;;;;;19.80;50.50;;;;;;8278525;28;19961;-44
2022/10/03 04:22:44;;;;;;;;;;;19.80;50.50;;;;;;8335447;28;19927;-44
2022/10/03 04:26:57;;;;;;;;;;;19.80;50.50;;;;;;8329811;28;19917;-44
2022/10/03 04:30:58;;;;;;;;;;;19.80;50.40;;;;;;8329828;28;20025;-45
2022/10/03 04:35:17;;;;;;;;;;;19.80;50.40;;;;;;8330198;28;20329;-45
2022/10/03 04:39:28;;;;;;;;;;;19.80;50.50;;;;;;8329309;28;19929;-45
2022/10/03 04:43:42;;;;;;;;;;;19.80;50.40;;;;;;8329792;28;19925;-44
2022/10/03 04:47:54;;;;;;;;;;;19.80;50.40;;;;;;8329341;28;19921;-45
2022/10/03 04:52:03;;;;;;;;;;;19.80;50.40;;;;;;8329802;28;19936;-44
2022/10/03 04:56:11;;;;;;;;;;;19.80;50.30;;;;;;8329563;28;19975;-45
2022/10/03 05:00:28;;;;;;;;;;;19.80;50.30;;;;;;8329186;28;19921;-44
2022/10/03 05:04:42;;;;;;;;;;;19.80;50.40;;;;;;8329781;28;19925;-44
2022/10/03 05:08:51;;;;;;;;;;;19.80;50.40;;;;;;8333121;28;19928;-44
2022/10/03 05:12:52;;;;;;;;;;;19.80;50.40;;;;;;8335934;28;19932;-44
2022/10/03 05:16:55;;;;;;;;;;;19.80;50.30;;;;;;8335751;28;20023;-44
2022/10/03 05:20:58;;;;;;;;;;;19.80;50.30;;;;;;8335198;28;20305;-44
2022/10/03 05:25:17;;;;;;;;;;;19.80;50.30;;;;;;8335306;28;19917;-45
2022/10/03 05:29:38;;;;;;;;;;;19.80;50.30;;;;;;8334981;28;19924;-45
2022/10/03 05:33:38;;;;;;;;;;;19.80;50.30;;;;;;8334117;28;19928;-44
2022/10/03 05:37:59;;;;;;;;;;;19.80;50.30;;;;;;8334748;28;19921;-44
2022/10/03 05:42:04;;;;;;;;;;;19.80;50.30;;;;;;8334330;28;19924;-45
2022/10/03 05:46:23;;;;;;;;;;;19.80;50.30;;;;;;8335050;28;19920;-44
2022/10/03 05:50:35;;;;;;;;;;;19.80;50.30;;;;;;8334737;28;20385;-44
2022/10/03 05:54:46;;;;;;;;;;;19.80;50.30;;;;;;8334398;28;19917;-44
2022/10/03 05:58:53;;;;;;;;;;;19.80;50.30;;;;;;8334408;28;19917;-44
2022/10/03 06:03:12;;;;;;;;;;;19.80;50.30;;;;;;8333694;28;19925;-44
2022/10/03 06:07:13;;;;;;;;;;;19.80;50.30;;;;;;8334064;28;19995;-44
2022/10/03 06:11:20;;;;;;;;;;;19.80;50.30;;;;;;8334016;28;19913;-44
2022/10/03 06:15:38;;;;;;;;;;;19.70;50.20;;;;;;8333163;28;20318;-44
2022/10/03 06:19:56;;;;;;;;;;;19.80;50.30;;;;;;8332434;28;19962;-44
2022/10/03 06:24:00;;;;;;;;;;;19.80;50.30;;;;;;8333010;28;19925;-43
2022/10/03 06:28:01;;;;;;;;;;;19.80;50.30;;;;;;8333729;28;19924;-44
2022/10/03 06:32:13;;;;;;;;;;;19.80;50.30;;;;;;8333430;28;19925;-44
2022/10/03 06:36:33;;;;;;;;;;;19.80;50.20;;;;;;8332825;28;19921;-44
2022/10/03 06:40:47;;;;;;;;;;;19.70;50.20;;;;;;8332955;28;19971;-45
2022/10/03 06:45:14;;;;;;;;;;;19.70;50.20;;;;;;8332517;28;19936;-44
2022/10/03 06:49:14;;;;;;;;;;;19.70;50.30;;;;;;8332653;28;20008;-45
2022/10/03 06:53:27;;;;;;;;;;;19.80;50.30;;;;;;8332511;28;19936;-44
2022/10/03 06:57:30;;;;;;;;;;;19.80;50.20;;;;;;8331932;28;19924;-44
2022/10/03 07:01:43;;;;;;;;;;;19.80;50.20;;;;;;8332700;28;19925;-44
2022/10/03 07:05:49;;;;;;;;;;;19.80;50.20;;;;;;8331716;28;20386;-44
2022/10/03 07:10:02;;;;;;;;;;;19.80;50.20;;;;;;8316990;28;19917;-44
2022/10/03 07:14:18;;;;;;;;;;;19.80;50.20;;;;;;8317331;28;19920;-46
2022/10/03 07:18:18;;;;;;;;;;;19.80;50.20;;;;;;8330967;28;20047;-43
2022/10/03 07:22:22;;;;;;;;;;;19.80;50.20;;;;;;8331503;28;19921;-44
2022/10/03 07:26:41;;;;;;;;;;;19.80;50.20;;;;;;8331956;28;20386;-43
2022/10/03 07:30:50;;;;;;;;;;;19.80;50.10;;;;;;8330984;28;19924;-44
2022/10/03 07:34:51;;;;;;;;;;;19.80;50.10;;;;;;8331293;28;19928;-43
2022/10/03 07:39:08;;;;;;;;;;;19.80;50.10;;;;;;8330627;28;19928;-43
2022/10/03 07:43:24;;;;;;;;;;;19.80;50.10;;;;;;8331004;28;19925;-43
2022/10/03 07:47:39;;;;;;;;;;;19.80;50.10;;;;;;8330782;28;20495;-44
2022/10/03 07:51:59;;;;;;;;;;;19.80;50.10;;;;;;8330879;28;19914;-45
2022/10/03 07:56:08;;;;;;;;;;;19.80;50.10;;;;;;8330898;28;19959;-43
2022/10/03 08:00:09;;;;;;;;;;;19.80;50.10;;;;;;8330117;28;19940;-44
2022/10/03 08:04:09;;;;;;;;;;;19.80;50.10;;;;;;8330741;28;20007;-44
2022/10/03 08:08:10;;;;;;;;;;;19.80;50.00;;;;;;8330446;28;19997;-46
2022/10/03 08:12:26;;;;;;;;;;;19.90;50.10;;;;;;8330357;28;19971;-45
2022/10/03 08:16:49;;;;;;;;;;;19.90;50.10;;;;;;8330617;28;19921;-44
2022/10/03 08:20:54;;;;;;;;;;;19.80;50.10;;;;;;8329653;28;19925;-44
2022/10/03 08:25:06;;;;;;;;;;;19.90;50.00;;;;;;8330257;28;19925;-44
2022/10/03 08:29:22;;;;;;;;;;;19.90;50.10;;;;;;8330418;28;19963;-45
2022/10/03 08:33:38;;;;;;;;;;;19.90;50.00;;;;;;8328263;28;20015;-46
2022/10/03 08:37:57;;;;;;;;;;;19.90;50.00;;;;;;8329741;28;19929;-44
2022/10/03 08:42:02;;;;;;;;;;;19.90;50.00;;;;;;8331168;28;20346;-44
2022/10/03 08:46:18;;;;;;;;;;;19.90;50.00;;;;;;8336495;28;19924;-44
2022/10/03 08:50:29;;;;;;;;;;;19.90;50.00;;;;;;8336297;28;19917;-44
2022/10/03 08:54:49;;;;;;;;;;;20.00;50.00;;;;;;8335885;28;19921;-45
2022/10/03 08:59:08;;;;;;;;;;;20.00;50.00;;;;;;8336274;28;19959;-43
2022/10/03 09:03:28;;;;;;;;;;;20.00;50.00;;;;;;8335609;28;19925;-43
2022/10/03 09:07:48;;;;;;;;;;;20.00;50.00;;;;;;8336343;28;19970;-44
2022/10/03 09:12:01;;;;;;;;;;;20.00;49.90;;;;;;8335863;28;20286;-44
2022/10/03 09:16:07;;;;;;;;;;;20.00;49.90;;;;;;8335421;28;19921;-43
2022/10/03 09:20:08;;;;;;;;;;;20.10;49.90;;;;;;8335338;28;19913;-45
2022/10/03 09:24:21;;;;;;;;;;;20.00;49.80;;;;;;8334981;28;19921;-43
2022/10/03 09:28:25;;;;;;;;;;;20.10;49.80;;;;;;8335205;28;19967;-44
2022/10/03 09:32:47;;;;;;;;;;;20.10;49.80;;;;;;8335358;28;19923;-44
2022/10/03 09:37:06;;;;;;;;;;;20.00;49.80;;;;;;8334955;28;19928;-46
2022/10/03 09:41:33;;;;;;;;;;;20.10;49.80;;;;;;8334589;28;19932;-45
2022/10/03 09:46:01;;;;;;;;;;;20.10;49.80;;;;;;8332492;28;19917;-43
2022/10/03 09:50:18;;;;;;;;;;;20.10;49.70;;;;;;8334432;28;19914;-44
2022/10/03 09:54:24;;;;;;;;;;;20.10;49.80;;;;;;8333575;28;19917;-44
2022/10/03 09:58:28;;;;;;;;;;;20.10;49.80;;;;;;8334404;28;20266;-44
2022/10/03 10:02:49;;;;;;;;;;;20.20;49.70;;;;;;8334420;28;19929;-44
2022/10/03 10:07:10;;;;;;;;;;;20.20;49.80;;;;;;8333457;28;19917;-45
2022/10/03 10:11:35;;;;;;;;;;;20.20;49.70;;;;;;8334003;28;20278;-44
2022/10/03 10:15:41;;;;;;;;;;;20.20;49.70;;;;;;8333447;28;19917;-43
2022/10/03 10:19:50;;;;;;;;;;;20.20;49.70;;;;;;8333495;28;19921;-44
2022/10/03 10:24:10;;;;;;;;;;;20.20;49.60;;;;;;8332963;28;19925;-44
2022/10/03 10:28:13;;;;;;;;;;;20.20;49.60;;;;;;8333704;28;19992;-43
2022/10/03 10:32:27;;;;;;;;;;;20.20;49.60;;;;;;8333567;28;19919;-44
2022/10/03 10:36:46;;;;;;;;;;;20.20;49.70;;;;;;8332575;28;19978;-45
2022/10/03 10:41:06;;;;;;;;;;;20.20;49.60;;;;;;8332906;28;19929;-43
2022/10/03 10:45:23;;;;;;;;;;;20.20;49.60;;;;;;8332402;28;20278;-43
2022/10/03 10:49:32;;;;;;;;;;;20.20;49.70;;;;;;8332573;28;19919;-45
2022/10/03 10:53:51;;;;;;;;;;;20.30;49.70;;;;;;8332113;28;19963;-44
2022/10/03 10:58:11;;;;;;;;;;;20.30;49.60;;;;;;8332671;28;19967;-45
2022/10/03 11:02:11;;;;;;;;;;;20.30;49.60;;;;;;8332398;28;19936;-43
2022/10/03 11:06:30;;;;;;;;;;;20.30;49.60;;;;;;8331064;28;20326;-43
2022/10/03 11:10:51;;;;;;;;;;;20.30;50.20;;;;;;8332030;28;19917;-44
2022/10/03 11:15:10;;;;;;;;;;;20.30;49.60;;;;;;8331422;28;19979;-44
2022/10/03 11:19:22;;;;;;;;;;;20.30;49.50;;;;;;8332042;28;20357;-45
2022/10/03 11:23:26;;;;;;;;;;;20.30;49.50;;;;;;8330438;28;19925;-45
2022/10/03 11:27:42;;;;;;;;;;;20.30;50.00;;;;;;8331102;28;19963;-44
2022/10/03 11:32:02;;;;;;;;;;;20.30;49.40;;;;;;8331353;28;19967;-42
2022/10/03 11:36:16;;;;;;;;;;;20.30;49.40;;;;;;8330713;28;19921;-44
2022/10/03 11:40:27;;;;;;;;;;;20.30;49.40;;;;;;8331284;28;20365;-45
2022/10/03 11:44:39;;;;;;;;;;;20.40;49.40;;;;;;8331135;28;19975;-44
2022/10/03 11:48:55;;;;;;;;;;;20.40;49.40;;;;;;8330706;28;19913;-43
2022/10/03 11:52:58;;;;;;;;;;;20.40;49.40;;;;;;8330819;28;19923;-44
2022/10/03 11:57:12;;;;;;;;;;;20.40;49.50;;;;;;8330315;28;19917;-43
2022/10/03 12:01:21;;;;;;;;;;;20.40;49.40;;;;;;8330675;28;19925;-43
2022/10/03 12:05:41;;;;;;;;;;;20.40;49.40;;;;;;8330546;28;20382;-45
2022/10/03 12:09:41;;;;;;;;;;;20.40;49.40;;;;;;8330147;28;20393;-44
2022/10/03 12:13:59;;;;;;;;;;;20.40;49.40;;;;;;8330715;28;19913;-44
2022/10/03 12:18:12;;;;;;;;;;;20.40;49.50;;;;;;8330104;28;20003;-43
2022/10/03 12:22:21;;;;;;;;;;;20.40;49.40;;;;;;8330456;28;20282;-43
2022/10/03 12:26:41;;;;;;;;;;;20.40;49.40;;;;;;8330421;28;20000;-43
2022/10/03 12:31:00;;;;;;;;;;;20.50;49.30;;;;;;8329995;28;19952;-45
2022/10/03 12:35:06;;;;;;;;;;;20.50;49.20;;;;;;8330135;28;20366;-44
2022/10/03 12:39:25;;;;;;;;;;;20.50;49.20;;;;;;8329614;28;19928;-45
2022/10/03 12:43:34;;;;;;;;;;;20.50;49.20;;;;;;8330101;28;19932;-44
2022/10/03 12:47:44;;;;;;;;;;;20.60;49.10;;;;;;8329527;28;20016;-44
2022/10/03 12:51:53;;;;;;;;;;;20.60;49.20;;;;;;8330099;28;20447;-44
2022/10/03 12:56:23;;;;;;;;;;;20.60;49.10;;;;;;8329656;28;19924;-44
2022/10/03 13:00:25;;;;;;;;;;;20.60;49.10;;;;;;8275353;28;19917;-44
2022/10/03 13:04:26;;;;;;;;;;;20.60;49.10;;;;;;8328568;28;19963;-44
2022/10/03 13:08:45;;;;;;;;;;;20.60;49.20;;;;;;8329911;28;19918;-44
2022/10/03 13:12:52;;;;;;;;;;;20.60;49.10;;;;;;8329475;28;20016;-44
2022/10/03 13:17:02;;;;;;;;;;;20.60;49.20;;;;;;8329637;28;19917;-44
2022/10/03 13:21:08;;;;;;;;;;;20.60;49.20;;;;;;8328726;28;19932;-45
2022/10/03 13:25:15;;;;;;;;;;;20.60;49.30;;;;;;8329615;28;19941;-45
2022/10/03 13:29:28;;;;;;;;;;;20.60;49.20;;;;;;8332644;28;19925;-45
2022/10/03 13:33:35;;;;;;;;;;;20.60;49.20;;;;;;8334910;28;19917;-43
2022/10/03 13:37:46;;;;;;;;;;;20.60;49.20;;;;;;8334822;28;19921;-45
2022/10/03 13:41:58;;;;;;;;;;;20.60;49.10;;;;;;8334525;28;19964;-44
2022/10/03 13:45:59;;;;;;;;;;;20.60;49.00;;;;;;8334718;28;20244;-45
2022/10/03 13:50:01;;;;;;;;;;;20.60;49.10;;;;;;8334763;28;19943;-44
2022/10/03 13:54:12;;;;;;;;;;;20.60;49.70;;;;;;8334339;28;19948;-44
2022/10/03 13:58:25;;;;;;;;;;;20.60;49.10;;;;;;8334818;28;20259;-44
2022/10/03 14:02:47;;;;;;;;;;;20.60;49.10;;;;;;8334269;28;20251;-43
2022/10/03 14:06:56;;;;;;;;;;;20.60;49.10;;;;;;8333936;28;19917;-44
2022/10/03 14:11:03;;;;;;;;;;;20.60;49.10;;;;;;8347837;28;20378;-44
2022/10/03 14:15:17;;;;;;;;;;;20.60;49.10;;;;;;8333567;28;20024;-44
2022/10/03 14:19:35;;;;;;;;;;;20.70;49.00;;;;;;8334329;28;19913;-44
2022/10/03 14:23:35;;;;;;;;;;;20.70;49.10;;;;;;8333323;28;19925;-44
2022/10/03 14:27:36;;;;;;;;;;;20.70;49.10;;;;;;8333464;28;20408;-44
2022/10/03 14:31:47;;;;;;;;;;;20.70;49.10;;;;;;8333642;28;19917;-45
2022/10/03 14:36:06;;;;;;;;;;;20.60;49.10;;;;;;8332777;28;20340;-44
2022/10/03 14:40:29;;;;;;;;;;;20.70;49.10;;;;;;8331985;28;19917;-44
2022/10/03 14:44:37;;;;;;;;;;;20.70;49.10;;;;;;8333266;28;19921;-44
2022/10/03 14:48:40;;;;;;;;;;;20.70;49.10;;;;;;8332475;28;19917;-44
2022/10/03 14:52:46;;;;;;;;;;;20.60;49.00;;;;;;8332340;28;19917;-44
2022/10/03 14:56:48;;;;;;;;;;;20.60;49.10;;;;;;8332267;28;20175;-44
2022/10/03 15:00:54;;;;;;;;;;;20.60;49.10;;;;;;8332405;28;19929;-44
2022/10/03 15:04:56;;;;;;;;;;;20.70;49.10;;;;;;8332379;28;19913;-44
2022/10/03 15:08:57;;;;;;;;;;;20.70;49.10;;;;;;8331771;28;20286;-44
2022/10/03 15:13:02;;;;;;;;;;;20.60;49.00;;;;;;8332039;28;19921;-44
2022/10/03 15:17:04;;;;;;;;;;;20.70;49.10;;;;;;8332067;28;19925;-42
2022/10/03 15:21:11;;;;;;;;;;;20.60;49.10;;;;;;8331282;28;20378;-43
2022/10/03 15:25:38;;;;;;;;;;;20.70;49.10;;;;;;8331741;28;19964;-43
2022/10/03 15:29:39;;;;;;;;;;;20.60;49.00;;;;;;8328308;28;20401;-44
2022/10/03 15:33:41;;;;;;;;;;;20.70;49.10;;;;;;8331380;28;19917;-43
2022/10/03 15:37:42;;;;;;;;;;;20.70;49.10;;;;;;8331174;28;19963;-44
2022/10/03 15:41:51;;;;;;;;;;;20.70;49.10;;;;;;8330856;28;20445;-44
2022/10/03 15:45:52;;;;;;;;;;;20.70;49.10;;;;;;8331365;28;20405;-44
2022/10/03 15:49:56;;;;;;;;;;;20.70;49.10;;;;;;8331304;28;20293;-44
2022/10/03 15:53:57;;;;;;;;;;;20.70;49.00;;;;;;8330307;28;20015;-43
2022/10/03 15:57:59;;;;;;;;;;;20.70;49.10;;;;;;8330803;28;19924;-45
2022/10/03 16:02:05;;;;;;;;;;;20.70;49.10;;;;;;8330907;28;19921;-45
2022/10/03 16:06:09;;;;;;;;;;;20.70;49.10;;;;;;8330174;28;19955;-45
2022/10/03 16:10:17;;;;;;;;;;;20.70;49.10;;;;;;8329833;28;19919;-45
2022/10/03 16:14:26;;;;;;;;;;;20.70;49.00;;;;;;8330426;28;19917;-45
2022/10/03 16:18:47;;;;;;;;;;;20.70;49.00;;;;;;8329885;28;19917;-43
2022/10/03 16:22:52;;;;;;;;;;;20.70;49.00;;;;;;8330391;28;19929;-47
2022/10/03 16:26:54;;;;;;;;;;;20.70;49.10;;;;;;8329894;28;19925;-46
2022/10/03 16:31:03;;;;;;;;;;;20.70;49.10;;;;;;8330308;28;19920;-44
2022/10/03 16:35:04;;;;;;;;;;;20.70;49.10;;;;;;8330179;28;19971;-44
2022/10/03 16:39:13;;;;;;;;;;;20.70;49.00;;;;;;8329561;28;19921;-45
2022/10/03 16:43:14;;;;;;;;;;;20.70;49.10;;;;;;8329775;28;20007;-44
2022/10/03 16:47:15;;;;;;;;;;;20.70;49.10;;;;;;8329846;28;20362;-45
2022/10/03 16:51:20;;;;;;;;;;;20.70;49.10;;;;;;8329319;28;19917;-43
2022/10/03 16:55:32;;;;;;;;;;;20.70;49.10;;;;;;8330157;28;19913;-44
2022/10/03 16:59:34;;;;;;;;;;;20.70;49.10;;;;;;8329613;28;19936;-45
2022/10/03 17:03:38;;;;;;;;;;;20.70;49.10;;;;;;8331550;28;19932;-45
2022/10/03 17:07:41;;;;;;;;;;;20.70;49.10;;;;;;8336141;28;19924;-44
2022/10/03 17:11:45;;;;;;;;;;;20.70;49.10;;;;;;8335472;28;19957;-45
2022/10/03 17:15:57;;;;;;;;;;;20.70;49.20;;;;;;8336088;28;19914;-44
2022/10/03 17:20:05;;;;;;;;;;;20.70;49.20;;;;;;8336018;28;20401;-45
2022/10/03 17:24:10;;;;;;;;;;;20.60;49.20;;;;;;8335057;28;19936;-44
2022/10/03 17:28:40;;;;;;;;;;;20.60;49.10;;;;;;8335654;28;19917;-45
2022/10/03 17:32:42;;;;;;;;;;;20.60;49.20;;;;;;8281036;28;19964;-44
2022/10/03 17:36:53;;;;;;;;;;;20.60;49.20;;;;;;8335247;28;19925;-45
2022/10/03 17:41:02;;;;;;;;;;;20.70;49.20;;;;;;8335215;28;20390;-44
2022/10/03 17:45:22;;;;;;;;;;;20.60;49.20;;;;;;8334692;28;19925;-44
2022/10/03 17:49:49;;;;;;;;;;;20.60;49.20;;;;;;8334815;28;20290;-44
2022/10/03 17:53:51;;;;;;;;;;;20.60;49.20;;;;;;8331015;28;19917;-44
2022/10/03 17:57:53;;;;;;;;;;;20.60;49.20;;;;;;8334522;28;19921;-45
2022/10/03 18:02:03;;;;;;;;;;;20.60;49.70;;;;;;8334379;28;19925;-45
2022/10/03 18:06:19;;;;;;;;;;;20.60;49.20;;;;;;8333982;28;20000;-44
2022/10/03 18:10:39;;;;;;;;;;;20.60;49.20;;;;;;8334265;28;20397;-45
2022/10/03 18:14:43;;;;;;;;;;;20.60;49.10;;;;;;8332910;28;19924;-44
2022/10/03 18:19:06;;;;;;;;;;;20.60;49.20;;;;;;8333666;28;19921;-44
2022/10/03 18:23:10;;;;;;;;;;;20.60;49.20;;;;;;8333532;28;20011;-45
2022/10/03 18:27:29;;;;;;;;;;;20.60;49.10;;;;;;8333162;28;20285;-44
2022/10/03 18:31:33;;;;;;;;;;;20.60;49.10;;;;;;8333436;28;19935;-44
2022/10/03 18:35:35;;;;;;;;;;;20.60;49.10;;;;;;8332961;28;19913;-44
2022/10/03 18:39:36;;;;;;;;;;;20.60;49.10;;;;;;8333229;28;19921;-44
2022/10/03 18:43:44;;;;;;;;;;;20.60;49.10;;;;;;8332961;28;19925;-44
2022/10/03 18:47:49;;;;;;;;;;;20.60;49.10;;;;;;8332499;28;19917;-44
2022/10/03 18:52:09;;;;;;;;;;;20.60;49.10;;;;;;8332805;28;19925;-45
2022/10/03 18:56:11;;;;;;;;;;;20.60;49.10;;;;;;8332854;28;19913;-44
2022/10/03 19:00:12;;;;;;;;;;;20.60;49.10;;;;;;8332130;28;19917;-45
2022/10/03 19:04:15;;;;;;;;;;;20.60;49.10;;;;;;8332504;28;19971;-45
2022/10/03 19:08:22;;;;;;;;;;;20.60;49.10;;;;;;8316512;28;19924;-44
2022/10/03 19:12:22;;;;;;;;;;;20.60;49.10;;;;;;8331830;28;19925;-44
2022/10/03 19:16:43;;;;;;;;;;;20.50;49.10;;;;;;8358329;28;19971;-44
2022/10/03 19:20:44;;;;;;;;;;;20.50;49.10;;;;;;8298958;28;20405;-44
2022/10/03 19:24:47;;;;;;;;;;;20.60;49.10;;;;;;8323859;28;19917;-45
2022/10/03 19:28:48;;;;;;;;;;;20.50;49.00;;;;;;8331518;28;20401;-44
2022/10/03 19:32:57;;;;;;;;;;;20.50;49.00;;;;;;8331061;28;19917;-45
2022/10/03 19:36:58;;;;;;;;;;;20.50;49.10;;;;;;8331538;28;19921;-43
2022/10/03 19:41:12;;;;;;;;;;;20.50;49.00;;;;;;8331383;28;19932;-44
2022/10/03 19:45:13;;;;;;;;;;;20.50;49.00;;;;;;8330828;28;19926;-44
2022/10/03 19:49:20;;;;;;;;;;;20.50;49.00;;;;;;8331486;28;19925;-43
2022/10/03 19:53:20;;;;;;;;;;;20.50;49.10;;;;;;8331269;28;19913;-44
2022/10/03 19:57:25;;;;;;;;;;;20.50;49.00;;;;;;8330529;28;19917;-44
2022/10/03 20:01:26;;;;;;;;;;;20.50;49.00;;;;;;8331006;28;19975;-43
2022/10/03 20:05:30;;;;;;;;;;;20.50;49.00;;;;;;8330801;28;19917;-43
2022/10/03 20:09:31;;;;;;;;;;;20.50;49.00;;;;;;8330173;28;19988;-45
2022/10/03 20:13:32;;;;;;;;;;;20.40;49.00;;;;;;8330444;28;19963;-43
2022/10/03 20:17:32;;;;;;;;;;;20.50;49.00;;;;;;8330348;28;19921;-44
2022/10/03 20:21:33;;;;;;;;;;;20.40;49.00;;;;;;8330227;28;20381;-43
2022/10/03 20:25:36;;;;;;;;;;;20.40;49.00;;;;;;8330131;28;20003;-42
2022/10/03 20:29:56;;;;;;;;;;;20.40;49.00;;;;;;8329850;28;20282;-44
2022/10/03 20:33:58;;;;;;;;;;;20.40;49.00;;;;;;8330110;28;19927;-43
2022/10/03 20:38:06;;;;;;;;;;;20.40;49.00;;;;;;8331375;28;19921;-43
2022/10/03 20:42:15;;;;;;;;;;;20.40;49.00;;;;;;8336728;28;19921;-44
2022/10/03 20:46:19;;;;;;;;;;;20.40;49.00;;;;;;8337048;28;20301;-43
2022/10/03 20:50:39;;;;;;;;;;;20.40;48.90;;;;;;8336426;28;19917;-43
2022/10/03 20:54:47;;;;;;;;;;;20.40;49.00;;;;;;8336507;28;19917;-44
2022/10/03 20:58:50;;;;;;;;;;;20.40;49.00;;;;;;8336181;28;19917;-43
2022/10/03 21:02:58;;;;;;;;;;;20.40;49.00;;;;;;8335624;28;20020;-43
2022/10/03 21:07:17;;;;;;;;;;;20.40;49.00;;;;;;8336294;28;20366;-43
2022/10/03 21:11:20;;;;;;;;;;;20.40;49.00;;;;;;8335827;28;19987;-43
2022/10/03 21:15:29;;;;;;;;;;;20.40;48.90;;;;;;8335274;28;20417;-44
2022/10/03 21:19:30;;;;;;;;;;;20.40;49.00;;;;;;8335841;28;19921;-43
2022/10/03 21:23:33;;;;;;;;;;;20.40;49.00;;;;;;8335425;28;19925;-44
2022/10/03 21:27:33;;;;;;;;;;;20.40;48.90;;;;;;8335223;28;20425;-43
2022/10/03 21:31:40;;;;;;;;;;;20.40;49.00;;;;;;8335706;28;19921;-44
2022/10/03 21:35:42;;;;;;;;;;;20.40;48.90;;;;;;8334486;28;19960;-45
2022/10/03 21:39:54;;;;;;;;;;;20.30;48.80;;;;;;8335330;28;19921;-43
2022/10/03 21:43:59;;;;;;;;;;;20.30;48.90;;;;;;8334756;28;19925;-45
2022/10/03 21:48:11;;;;;;;;;;;20.30;48.90;;;;;;8334311;28;20385;-44
2022/10/03 21:52:25;;;;;;;;;;;20.30;48.90;;;;;;8335019;28;19914;-42
2022/10/03 21:56:37;;;;;;;;;;;20.30;48.90;;;;;;8334473;28;19984;-43
2022/10/03 22:00:57;;;;;;;;;;;20.30;48.90;;;;;;8328855;28;20013;-43
2022/10/03 22:05:13;;;;;;;;;;;20.30;48.90;;;;;;8318203;28;19928;-42
2022/10/03 22:09:14;;;;;;;;;;;20.30;48.90;;;;;;8333807;28;20342;-43
2022/10/03 22:13:17;;;;;;;;;;;20.30;48.90;;;;;;8334022;28;19925;-43
2022/10/03 22:17:27;;;;;;;;;;;20.30;48.90;;;;;;8334413;28;20366;-44
2022/10/03 22:21:32;;;;;;;;;;;20.20;48.80;;;;;;8333340;28;19933;-43
2022/10/03 22:25:32;;;;;;;;;;;20.20;48.80;;;;;;8333761;28;20324;-44
2022/10/03 22:29:44;;;;;;;;;;;20.30;48.80;;;;;;8333675;28;19921;-45
2022/10/03 22:34:05;;;;;;;;;;;20.20;48.80;;;;;;8333495;28;19986;-43
2022/10/03 22:38:06;;;;;;;;;;;20.20;48.80;;;;;;8333395;28;19921;-43
2022/10/03 22:42:07;;;;;;;;;;;20.20;48.80;;;;;;8333140;28;20389;-44
2022/10/03 22:46:09;;;;;;;;;;;20.20;48.80;;;;;;8332969;28;20008;-43
2022/10/03 22:50:11;;;;;;;;;;;20.20;48.90;;;;;;8333061;28;20290;-43
2022/10/03 22:54:14;;;;;;;;;;;20.20;48.70;;;;;;8332295;28;19940;-43
2022/10/03 22:58:15;;;;;;;;;;;20.10;48.80;;;;;;8332675;28;19921;-43
2022/10/03 23:02:17;;;;;;;;;;;20.10;48.80;;;;;;8331753;28;19925;-43
2022/10/03 23:06:23;;;;;;;;;;;20.10;49.30;;;;;;8331949;28;20441;-43
2022/10/03 23:10:42;;;;;;;;;;;20.10;48.80;;;;;;8332223;28;19929;-43
2022/10/03 23:14:46;;;;;;;;;;;20.10;48.80;;;;;;8331954;28;19917;-43
2022/10/03 23:19:04;;;;;;;;;;;20.10;48.80;;;;;;8331909;28;19996;-43
2022/10/03 23:23:11;;;;;;;;;;;20.10;48.80;;;;;;8331969;28;19960;-43
2022/10/03 23:27:17;;;;;;;;;;;20.10;48.80;;;;;;8331436;28;19917;-43
2022/10/03 23:31:37;;;;;;;;;;;20.10;48.80;;;;;;8331688;28;19936;-43
2022/10/03 23:35:39;;;;;;;;;;;20.10;48.80;;;;;;8330991;28;19960;-43
2022/10/03 23:39:41;;;;;;;;;;;20.10;48.80;;;;;;8331368;28;19924;-43
2022/10/03 23:43:47;;;;;;;;;;;20.00;48.70;;;;;;8331387;28;19921;-43
2022/10/03 23:48:03;;;;;;;;;;;20.00;48.70;;;;;;8331112;28;19914;-43
2022/10/03 23:52:03;;;;;;;;;;;20.00;48.80;;;;;;8331076;28;19925;-43
2022/10/03 23:56:22;;;;;;;;;;;20.00;48.70;;;;;;8330920;28;19971;-43
